createdAt,value
2023-03-13T00:00:03.216Z,6.40
2023-03-13T00:01:03.257Z,6.40
2023-03-13T00:02:03.380Z,6.40
2023-03-13T00:03:03.283Z,6.40
2023-03-13T00:04:03.275Z,6.50
2023-03-13T00:05:03.419Z,6.50
2023-03-13T00:06:03.443Z,6.50
2023-03-13T00:07:03.376Z,6.50
2023-03-13T00:08:03.456Z,6.50
2023-03-13T00:09:03.426Z,6.50
2023-03-13T00:10:03.457Z,6.50
2023-03-13T00:11:03.433Z,6.50
2023-03-13T00:12:03.173Z,6.50
2023-03-13T00:13:03.097Z,6.50
2023-03-13T00:14:03.096Z,6.50
2023-03-13T00:15:03.286Z,6.50
2023-03-13T00:16:03.326Z,6.50
2023-03-13T00:17:03.335Z,6.50
2023-03-13T00:18:03.425Z,6.50
2023-03-13T00:19:03.396Z,6.50
2023-03-13T00:20:03.398Z,6.60
2023-03-13T00:21:03.380Z,6.50
2023-03-13T00:22:03.393Z,6.50
2023-03-13T00:23:03.360Z,6.50
2023-03-13T00:24:03.389Z,6.50
2023-03-13T00:25:03.352Z,6.50
2023-03-13T00:26:03.318Z,6.50
2023-03-13T00:27:03.455Z,6.60
2023-03-13T00:28:03.506Z,6.60
2023-03-13T00:29:03.531Z,6.60
2023-03-13T00:30:03.617Z,6.60
2023-03-13T00:31:02.754Z,6.60
2023-03-13T00:32:03.634Z,6.60
2023-03-13T00:33:02.720Z,6.60
2023-03-13T00:34:02.615Z,6.60
2023-03-13T00:35:02.752Z,6.60
2023-03-13T00:36:02.678Z,6.60
2023-03-13T00:37:02.751Z,6.60
2023-03-13T00:38:02.841Z,6.60
2023-03-13T00:39:02.955Z,6.60
2023-03-13T00:40:02.896Z,6.60
2023-03-13T00:41:02.960Z,6.60
2023-03-13T00:42:02.991Z,6.60
2023-03-13T00:43:03.062Z,6.60
2023-03-13T00:44:03.057Z,6.60
2023-03-13T00:45:03.008Z,6.60
2023-03-13T00:46:03.126Z,6.60
2023-03-13T00:47:03.017Z,6.60
2023-03-13T00:48:02.936Z,6.70
2023-03-13T00:49:03.012Z,6.70
2023-03-13T00:50:02.944Z,6.70
2023-03-13T00:51:03.001Z,6.70
2023-03-13T00:52:02.952Z,6.70
2023-03-13T00:53:03.038Z,6.70
2023-03-13T00:54:03.043Z,6.70
2023-03-13T00:55:03.234Z,6.70
2023-03-13T00:56:03.193Z,6.70
2023-03-13T00:57:03.289Z,6.70
2023-03-13T00:58:03.406Z,6.70
2023-03-13T00:59:03.367Z,6.70
2023-03-13T01:00:03.357Z,6.70
2023-03-13T01:01:03.424Z,6.70
2023-03-13T01:02:03.488Z,6.70
2023-03-13T01:03:03.595Z,6.70
2023-03-13T01:04:03.409Z,6.70
2023-03-13T01:05:03.468Z,6.70
2023-03-13T01:06:03.595Z,6.70
2023-03-13T01:07:02.606Z,6.70
2023-03-13T01:08:02.699Z,6.70
2023-03-13T01:09:02.707Z,6.70
2023-03-13T01:10:03.144Z,6.80
2023-03-13T01:11:02.887Z,6.80
2023-03-13T01:12:02.892Z,6.80
2023-03-13T01:13:02.937Z,6.80
2023-03-13T01:14:02.952Z,6.80
2023-03-13T01:15:02.956Z,6.80
2023-03-13T01:16:02.961Z,6.80
2023-03-13T01:17:02.979Z,6.80
2023-03-13T01:18:02.944Z,6.80
2023-03-13T01:19:02.974Z,6.80
2023-03-13T01:20:02.916Z,6.80
2023-03-13T01:21:02.963Z,6.80
2023-03-13T01:22:03.105Z,6.80
2023-03-13T01:23:02.981Z,6.80
2023-03-13T01:24:03.133Z,6.90
2023-03-13T01:25:03.399Z,6.90
2023-03-13T01:26:03.307Z,6.90
2023-03-13T01:27:03.337Z,6.90
2023-03-13T01:28:03.563Z,6.90
2023-03-13T01:29:03.306Z,6.90
2023-03-13T01:30:03.468Z,6.90
2023-03-13T01:31:03.398Z,6.90
2023-03-13T01:32:02.739Z,6.90
2023-03-13T01:33:02.646Z,6.90
2023-03-13T01:34:02.694Z,6.90
2023-03-13T01:35:02.759Z,6.90
2023-03-13T01:36:02.693Z,7.00
2023-03-13T01:37:02.724Z,6.90
2023-03-13T01:38:02.860Z,7.00
2023-03-13T01:39:02.836Z,7.00
2023-03-13T01:40:02.952Z,7.00
2023-03-13T01:41:02.976Z,7.00
2023-03-13T01:42:03.052Z,7.00
2023-03-13T01:43:02.981Z,7.00
2023-03-13T01:44:02.971Z,7.00
2023-03-13T01:45:02.952Z,7.00
2023-03-13T01:46:03.107Z,7.10
2023-03-13T01:47:02.963Z,7.10
2023-03-13T01:48:03.117Z,7.10
2023-03-13T01:49:03.119Z,7.10
2023-03-13T01:50:03.113Z,7.10
2023-03-13T01:51:03.128Z,7.10
2023-03-13T01:52:03.063Z,7.10
2023-03-13T01:53:03.212Z,7.10
2023-03-13T01:54:03.214Z,7.10
2023-03-13T01:55:03.156Z,7.10
2023-03-13T01:56:03.234Z,7.10
2023-03-13T01:57:03.373Z,7.10
2023-03-13T01:58:03.330Z,7.10
2023-03-13T01:59:03.440Z,7.10
2023-03-13T02:00:03.477Z,7.10
2023-03-13T02:01:03.507Z,7.10
2023-03-13T02:02:03.603Z,7.10
2023-03-13T02:03:02.683Z,7.10
2023-03-13T02:04:02.713Z,7.10
2023-03-13T02:05:02.723Z,7.10
2023-03-13T02:06:02.867Z,7.10
2023-03-13T02:07:02.808Z,7.10
2023-03-13T02:08:02.797Z,7.20
2023-03-13T02:09:02.858Z,7.20
2023-03-13T02:10:02.963Z,7.20
2023-03-13T02:11:02.930Z,7.10
2023-03-13T02:12:02.989Z,7.20
2023-03-13T02:13:02.880Z,7.20
2023-03-13T02:14:03.024Z,7.20
2023-03-13T02:15:03.008Z,7.20
2023-03-13T02:16:02.902Z,7.20
2023-03-13T02:17:03.048Z,7.20
2023-03-13T02:18:02.990Z,7.20
2023-03-13T02:19:03.000Z,7.20
2023-03-13T02:20:03.107Z,7.20
2023-03-13T02:21:02.954Z,7.20
2023-03-13T02:22:03.061Z,7.20
2023-03-13T02:23:03.095Z,7.20
2023-03-13T02:24:03.095Z,7.20
2023-03-13T02:25:03.152Z,7.20
2023-03-13T02:26:03.124Z,7.30
2023-03-13T02:27:03.097Z,7.30
2023-03-13T02:28:03.058Z,7.30
2023-03-13T02:29:03.008Z,7.30
2023-03-13T02:30:03.021Z,7.30
2023-03-13T02:31:03.125Z,7.30
2023-03-13T02:32:03.141Z,7.30
2023-03-13T02:33:03.322Z,7.40
2023-03-13T02:34:03.325Z,7.40
2023-03-13T02:35:03.451Z,7.40
2023-03-13T02:36:03.464Z,7.40
2023-03-13T02:37:03.381Z,7.40
2023-03-13T02:38:03.417Z,7.40
2023-03-13T02:39:03.447Z,7.40
2023-03-13T02:40:03.416Z,7.40
2023-03-13T02:41:03.505Z,7.40
2023-03-13T02:42:03.438Z,7.40
2023-03-13T02:43:03.358Z,7.40
2023-03-13T02:44:03.383Z,7.50
2023-03-13T02:45:03.296Z,7.50
2023-03-13T02:46:03.296Z,7.50
2023-03-13T02:47:03.365Z,7.50
2023-03-13T02:48:03.395Z,7.50
2023-03-13T02:49:03.456Z,7.50
2023-03-13T02:50:03.444Z,7.50
2023-03-13T02:51:03.400Z,7.50
2023-03-13T02:52:03.400Z,7.50
2023-03-13T02:53:03.436Z,7.50
2023-03-13T02:54:03.411Z,7.50
2023-03-13T02:55:03.371Z,7.50
2023-03-13T02:56:03.369Z,7.50
2023-03-13T02:57:03.338Z,7.50
2023-03-13T02:58:03.343Z,7.50
2023-03-13T02:59:03.414Z,7.50
2023-03-13T03:00:03.373Z,7.60
2023-03-13T03:01:03.447Z,7.60
2023-03-13T03:02:03.479Z,7.60
2023-03-13T03:03:03.541Z,7.60
2023-03-13T03:04:03.581Z,7.60
2023-03-13T03:05:02.658Z,7.60
2023-03-13T03:06:02.681Z,7.60
2023-03-13T03:07:02.756Z,7.60
2023-03-13T03:08:03.033Z,7.60
2023-03-13T03:09:03.062Z,7.60
2023-03-13T03:10:03.040Z,7.60
2023-03-13T03:11:03.120Z,7.60
2023-03-13T03:12:03.162Z,7.60
2023-03-13T03:13:03.222Z,7.60
2023-03-13T03:14:03.331Z,7.70
2023-03-13T03:15:03.359Z,7.70
2023-03-13T03:16:03.424Z,7.70
2023-03-13T03:17:03.438Z,7.70
2023-03-13T03:18:03.403Z,7.70
2023-03-13T03:19:03.436Z,7.70
2023-03-13T03:20:03.425Z,7.70
2023-03-13T03:21:03.560Z,7.70
2023-03-13T03:22:03.579Z,7.70
2023-03-13T03:23:02.650Z,7.70
2023-03-13T03:24:02.683Z,7.70
2023-03-13T03:25:02.718Z,7.70
2023-03-13T03:26:03.118Z,7.70
2023-03-13T03:27:03.314Z,7.70
2023-03-13T03:28:03.338Z,7.80
2023-03-13T03:29:03.395Z,7.80
2023-03-13T03:30:03.471Z,7.80
2023-03-13T03:31:03.528Z,7.80
2023-03-13T03:32:03.609Z,7.80
2023-03-13T03:33:03.553Z,7.80
2023-03-13T03:34:03.480Z,7.80
2023-03-13T03:35:03.644Z,7.80
2023-03-13T03:36:03.741Z,7.80
2023-03-13T03:37:02.643Z,7.80
2023-03-13T03:38:02.708Z,7.80
2023-03-13T03:39:02.765Z,7.80
2023-03-13T03:40:02.929Z,7.80
2023-03-13T03:41:02.916Z,7.80
2023-03-13T03:42:02.882Z,7.90
2023-03-13T03:43:02.945Z,7.90
2023-03-13T03:44:02.866Z,7.90
2023-03-13T03:45:02.918Z,7.90
2023-03-13T03:46:03.041Z,7.90
2023-03-13T03:47:02.936Z,7.90
2023-03-13T03:48:02.925Z,7.90
2023-03-13T03:49:02.939Z,7.90
2023-03-13T03:50:03.063Z,7.90
2023-03-13T03:51:03.051Z,7.90
2023-03-13T03:52:03.088Z,7.90
2023-03-13T03:53:03.072Z,7.90
2023-03-13T03:54:03.070Z,7.90
2023-03-13T03:55:03.048Z,7.90
2023-03-13T03:56:02.952Z,7.90
2023-03-13T03:57:03.031Z,7.90
2023-03-13T03:58:02.976Z,7.90
2023-03-13T03:59:02.953Z,7.90
2023-03-13T04:00:02.975Z,8.00
2023-03-13T04:01:03.070Z,8.00
2023-03-13T04:02:03.081Z,8.00
2023-03-13T04:03:03.046Z,8.00
2023-03-13T04:04:02.966Z,8.00
2023-03-13T04:05:02.888Z,8.00
2023-03-13T04:06:02.905Z,8.00
2023-03-13T04:07:03.005Z,8.00
2023-03-13T04:08:03.113Z,8.00
2023-03-13T04:09:03.310Z,8.00
2023-03-13T04:10:03.441Z,8.00
2023-03-13T04:11:03.360Z,8.00
2023-03-13T04:12:03.361Z,8.00
2023-03-13T04:13:03.454Z,8.00
2023-03-13T04:14:03.519Z,8.00
2023-03-13T04:15:03.659Z,8.00
2023-03-13T04:16:02.640Z,8.00
2023-03-13T04:17:02.850Z,8.00
2023-03-13T04:18:02.760Z,8.00
2023-03-13T04:19:02.810Z,8.00
2023-03-13T04:20:02.967Z,8.00
2023-03-13T04:21:03.051Z,8.00
2023-03-13T04:22:03.035Z,8.00
2023-03-13T04:23:03.039Z,8.00
2023-03-13T04:24:03.069Z,8.00
2023-03-13T04:25:02.949Z,8.00
2023-03-13T04:26:02.970Z,8.00
2023-03-13T04:27:03.042Z,8.00
2023-03-13T04:28:03.106Z,8.00
2023-03-13T04:29:03.192Z,8.00
2023-03-13T04:30:03.319Z,8.00
2023-03-13T04:31:03.459Z,8.00
2023-03-13T04:32:03.429Z,8.00
2023-03-13T04:33:03.415Z,8.00
2023-03-13T04:34:03.296Z,8.00
2023-03-13T04:35:03.533Z,8.00
2023-03-13T04:36:03.589Z,8.10
2023-03-13T04:37:03.565Z,8.10
2023-03-13T04:38:03.582Z,8.10
2023-03-13T04:39:03.486Z,8.10
2023-03-13T04:40:03.572Z,8.10
2023-03-13T04:41:03.569Z,8.10
2023-03-13T04:42:02.690Z,8.10
2023-03-13T04:43:02.686Z,8.10
2023-03-13T04:44:02.774Z,8.10
2023-03-13T04:45:02.860Z,8.10
2023-03-13T04:46:02.947Z,8.10
2023-03-13T04:47:02.978Z,8.10
2023-03-13T04:48:02.894Z,8.10
2023-03-13T04:49:02.904Z,8.10
2023-03-13T04:50:02.888Z,8.10
2023-03-13T04:51:03.074Z,8.10
2023-03-13T04:52:02.685Z,8.10
2023-03-13T04:53:02.677Z,8.10
2023-03-13T04:54:02.622Z,8.10
2023-03-13T04:55:02.716Z,8.10
2023-03-13T04:56:02.818Z,8.10
2023-03-13T04:57:02.729Z,8.10
2023-03-13T04:58:02.772Z,8.20
2023-03-13T04:59:02.845Z,8.20
2023-03-13T05:00:02.835Z,8.20
2023-03-13T05:01:02.887Z,8.20
2023-03-13T05:02:02.953Z,8.20
2023-03-13T05:03:02.930Z,8.20
2023-03-13T05:04:03.033Z,8.20
2023-03-13T05:05:03.136Z,8.20
2023-03-13T05:06:03.053Z,8.20
2023-03-13T05:07:03.112Z,8.20
2023-03-13T05:08:03.415Z,8.20
2023-03-13T05:09:03.443Z,8.20
2023-03-13T05:10:03.577Z,8.20
2023-03-13T05:11:03.515Z,8.20
2023-03-13T05:12:03.576Z,8.20
2023-03-13T05:13:03.557Z,8.20
2023-03-13T05:14:03.611Z,8.20
2023-03-13T05:15:03.632Z,8.20
2023-03-13T05:16:02.742Z,8.20
2023-03-13T05:17:02.723Z,8.20
2023-03-13T05:18:02.746Z,8.20
2023-03-13T05:19:02.698Z,8.30
2023-03-13T05:20:03.291Z,8.30
2023-03-13T05:21:03.304Z,8.30
2023-03-13T05:22:03.354Z,8.30
2023-03-13T05:23:03.360Z,8.30
2023-03-13T05:24:03.303Z,8.30
2023-03-13T05:25:03.645Z,8.30
2023-03-13T05:26:03.510Z,8.30
2023-03-13T05:27:03.520Z,8.30
2023-03-13T05:28:02.653Z,8.30
2023-03-13T05:29:02.693Z,8.30
2023-03-13T05:30:02.646Z,8.30
2023-03-13T05:31:02.799Z,8.30
2023-03-13T05:32:02.668Z,8.30
2023-03-13T05:33:02.793Z,8.30
2023-03-13T05:34:02.750Z,8.30
2023-03-13T05:35:02.625Z,8.30
2023-03-13T05:36:02.771Z,8.30
2023-03-13T05:37:02.637Z,8.30
2023-03-13T05:38:02.770Z,8.30
2023-03-13T05:39:02.838Z,8.30
2023-03-13T05:40:02.819Z,8.30
2023-03-13T05:41:02.779Z,8.30
2023-03-13T05:42:02.825Z,8.30
2023-03-13T05:43:02.846Z,8.30
2023-03-13T05:44:02.744Z,8.30
2023-03-13T05:45:02.863Z,8.30
2023-03-13T05:46:02.853Z,8.30
2023-03-13T05:47:04.093Z,8.30
2023-03-13T05:48:02.951Z,8.30
2023-03-13T05:49:03.022Z,8.40
2023-03-13T05:50:02.936Z,8.30
2023-03-13T05:51:02.925Z,8.30
2023-03-13T05:52:02.961Z,8.30
2023-03-13T05:53:02.903Z,8.40
2023-03-13T05:54:02.912Z,8.40
2023-03-13T05:55:02.934Z,8.40
2023-03-13T05:56:02.797Z,8.40
2023-03-13T05:57:02.761Z,8.40
2023-03-13T05:58:02.888Z,8.40
2023-03-13T05:59:02.876Z,8.40
2023-03-13T06:00:02.968Z,8.40
2023-03-13T06:01:02.985Z,8.30
2023-03-13T06:02:03.109Z,8.40
2023-03-13T06:03:03.039Z,8.40
2023-03-13T06:04:03.113Z,8.40
2023-03-13T06:05:03.096Z,8.40
2023-03-13T06:06:03.143Z,8.40
2023-03-13T06:07:03.074Z,8.40
2023-03-13T06:08:03.021Z,8.40
2023-03-13T06:09:03.102Z,8.40
2023-03-13T06:10:03.194Z,8.40
2023-03-13T06:11:03.149Z,8.40
2023-03-13T06:12:03.177Z,8.40
2023-03-13T06:13:13.876Z,8.40
2023-03-13T06:14:03.128Z,8.40
2023-03-13T06:15:03.242Z,8.40
2023-03-13T06:16:03.266Z,8.30
2023-03-13T06:17:03.260Z,8.40
2023-03-13T06:18:03.139Z,8.30
2023-03-13T06:19:03.207Z,8.40
2023-03-13T06:20:03.283Z,8.40
2023-03-13T06:21:03.311Z,8.40
2023-03-13T06:22:03.377Z,8.40
2023-03-13T06:23:03.526Z,8.40
2023-03-13T06:24:02.662Z,8.40
2023-03-13T06:25:02.625Z,8.40
2023-03-13T06:26:02.657Z,8.40
2023-03-13T06:27:02.733Z,8.40
2023-03-13T06:28:02.820Z,8.40
2023-03-13T06:29:02.930Z,8.40
2023-03-13T06:30:02.905Z,8.50
2023-03-13T06:31:03.016Z,8.50
2023-03-13T06:32:03.109Z,8.50
2023-03-13T06:33:03.260Z,8.50
2023-03-13T06:34:03.168Z,8.50
2023-03-13T06:35:03.156Z,8.50
2023-03-13T06:36:03.263Z,8.50
2023-03-13T06:37:03.257Z,8.50
2023-03-13T06:38:03.407Z,8.50
2023-03-13T06:39:03.258Z,8.60
2023-03-13T06:40:03.245Z,8.60
2023-03-13T06:41:03.230Z,8.60
2023-03-13T06:42:03.175Z,8.60
2023-03-13T06:43:03.348Z,8.60
2023-03-13T06:44:03.315Z,8.60
2023-03-13T06:45:03.299Z,8.60
2023-03-13T06:46:03.254Z,8.60
2023-03-13T06:47:03.335Z,8.60
2023-03-13T06:48:03.188Z,8.60
2023-03-13T06:49:03.284Z,8.60
2023-03-13T06:50:03.379Z,8.60
2023-03-13T06:51:03.417Z,8.60
2023-03-13T06:52:03.277Z,8.60
2023-03-13T06:53:03.356Z,8.60
2023-03-13T06:54:03.085Z,8.70
2023-03-13T06:55:03.180Z,8.60
2023-03-13T06:56:03.194Z,8.60
2023-03-13T06:57:03.168Z,8.70
2023-03-13T06:58:03.313Z,8.70
2023-03-13T06:59:03.212Z,8.70
2023-03-13T07:00:03.148Z,8.70
2023-03-13T07:01:02.983Z,8.70
2023-03-13T07:02:02.874Z,8.70
2023-03-13T07:03:02.839Z,8.70
2023-03-13T07:04:03.004Z,8.70
2023-03-13T07:05:03.050Z,8.80
2023-03-13T07:06:03.133Z,8.80
2023-03-13T07:07:03.231Z,8.80
2023-03-13T07:08:03.275Z,8.80
2023-03-13T07:09:03.111Z,8.80
2023-03-13T07:10:03.108Z,8.90
2023-03-13T07:11:03.218Z,8.90
2023-03-13T07:12:03.223Z,8.90
2023-03-13T07:13:03.253Z,8.90
2023-03-13T07:14:15.599Z,8.90
2023-03-13T07:15:03.277Z,8.90
2023-03-13T07:16:03.324Z,8.90
2023-03-13T07:17:03.361Z,8.90
2023-03-13T07:18:02.695Z,8.90
2023-03-13T07:19:03.610Z,8.90
2023-03-13T07:20:03.694Z,9.00
2023-03-13T07:21:03.602Z,9.00
2023-03-13T07:22:02.636Z,9.00
2023-03-13T07:23:02.771Z,9.00
2023-03-13T07:24:02.875Z,9.00
2023-03-13T07:25:02.981Z,9.00
2023-03-13T07:26:02.982Z,9.00
2023-03-13T07:27:07.364Z,9.00
2023-03-13T07:28:03.118Z,9.00
2023-03-13T07:29:03.142Z,9.00
2023-03-13T07:30:03.170Z,9.00
2023-03-13T07:31:03.180Z,9.10
2023-03-13T07:32:03.214Z,9.10
2023-03-13T07:33:03.157Z,9.10
2023-03-13T07:34:03.174Z,9.10
2023-03-13T07:35:03.186Z,9.20
2023-03-13T07:36:03.245Z,9.20
2023-03-13T07:37:03.204Z,9.30
2023-03-13T07:38:03.182Z,9.30
2023-03-13T07:39:03.328Z,9.30
2023-03-13T07:40:03.237Z,9.40
2023-03-13T07:41:03.326Z,9.40
2023-03-13T07:42:03.322Z,9.50
2023-03-13T07:43:03.451Z,9.50
2023-03-13T07:44:03.345Z,9.50
2023-03-13T07:45:02.666Z,9.60
2023-03-13T07:46:02.776Z,9.60
2023-03-13T07:47:02.839Z,9.60
2023-03-13T07:48:02.911Z,9.70
2023-03-13T07:49:03.213Z,9.70
2023-03-13T07:50:03.409Z,9.70
2023-03-13T07:51:03.539Z,9.80
2023-03-13T07:52:03.397Z,9.80
2023-03-13T07:53:03.517Z,9.80
2023-03-13T07:54:03.611Z,9.80
2023-03-13T07:55:03.592Z,9.80
2023-03-13T07:56:03.535Z,9.90
2023-03-13T07:57:03.553Z,9.90
2023-03-13T07:58:03.557Z,9.90
2023-03-13T07:59:03.543Z,9.90
2023-03-13T08:00:02.711Z,9.90
2023-03-13T08:01:02.679Z,9.90
2023-03-13T08:02:02.767Z,9.90
2023-03-13T08:03:02.886Z,9.90
2023-03-13T08:04:02.722Z,9.90
2023-03-13T08:05:02.766Z,9.90
2023-03-13T08:06:02.881Z,9.90
2023-03-13T08:07:02.818Z,9.90
2023-03-13T08:08:02.937Z,9.90
2023-03-13T08:09:02.920Z,9.90
2023-03-13T08:10:02.904Z,9.90
2023-03-13T08:11:03.418Z,9.90
2023-03-13T08:12:03.424Z,9.90
2023-03-13T08:13:03.573Z,9.90
2023-03-13T08:14:03.579Z,9.90
2023-03-13T08:15:02.616Z,9.90
2023-03-13T08:16:02.733Z,9.90
2023-03-13T08:17:02.993Z,10.00
2023-03-13T08:18:02.885Z,10.00
2023-03-13T08:19:02.912Z,10.00
2023-03-13T08:20:02.867Z,10.00
2023-03-13T08:21:02.952Z,10.00
2023-03-13T08:22:02.931Z,10.00
2023-03-13T08:23:02.831Z,10.00
2023-03-13T08:24:02.941Z,10.00
2023-03-13T08:25:02.999Z,10.00
2023-03-13T08:26:02.986Z,10.00
2023-03-13T08:27:02.963Z,10.10
2023-03-13T08:28:03.056Z,10.10
2023-03-13T08:29:02.992Z,10.10
2023-03-13T08:30:03.008Z,10.10
2023-03-13T08:31:03.009Z,10.10
2023-03-13T08:32:02.987Z,10.10
2023-03-13T08:33:03.753Z,10.10
2023-03-13T08:34:03.209Z,10.20
2023-03-13T08:35:03.153Z,10.20
2023-03-13T08:36:03.251Z,10.20
2023-03-13T08:37:03.262Z,10.20
2023-03-13T08:38:03.219Z,10.20
2023-03-13T08:39:03.322Z,10.20
2023-03-13T08:40:03.416Z,10.30
2023-03-13T08:41:03.493Z,10.30
2023-03-13T08:42:03.614Z,10.30
2023-03-13T08:43:03.621Z,10.30
2023-03-13T08:44:02.636Z,10.30
2023-03-13T08:45:02.634Z,10.40
2023-03-13T08:46:02.818Z,10.40
2023-03-13T08:47:02.725Z,10.40
2023-03-13T08:48:02.685Z,10.40
2023-03-13T08:49:02.661Z,10.40
2023-03-13T08:50:02.678Z,10.50
2023-03-13T08:51:02.771Z,10.50
2023-03-13T08:52:02.749Z,10.50
2023-03-13T08:53:02.702Z,10.50
2023-03-13T08:54:02.657Z,10.50
2023-03-13T08:55:03.681Z,10.60
2023-03-13T08:56:02.878Z,10.60
2023-03-13T08:57:02.964Z,10.60
2023-03-13T08:58:02.902Z,10.60
2023-03-13T08:59:02.994Z,10.60
2023-03-13T09:00:02.920Z,10.70
2023-03-13T09:01:03.044Z,10.70
2023-03-13T09:02:03.037Z,10.70
2023-03-13T09:03:03.082Z,10.70
2023-03-13T09:04:04.355Z,10.70
2023-03-13T09:05:03.002Z,10.70
2023-03-13T09:06:03.225Z,10.80
2023-03-13T09:07:03.232Z,10.80
2023-03-13T09:08:03.226Z,10.80
2023-03-13T09:09:03.262Z,10.80
2023-03-13T09:10:03.281Z,10.80
2023-03-13T09:11:03.533Z,10.80
2023-03-13T09:12:03.515Z,10.80
2023-03-13T09:13:03.428Z,10.80
2023-03-13T09:14:03.483Z,10.80
2023-03-13T09:15:03.320Z,10.90
2023-03-13T09:16:03.495Z,10.90
2023-03-13T09:17:03.606Z,10.90
2023-03-13T09:18:03.489Z,10.90
2023-03-13T09:19:03.501Z,10.90
2023-03-13T09:20:03.649Z,11.00
2023-03-13T09:21:03.566Z,11.00
2023-03-13T09:22:02.687Z,11.00
2023-03-13T09:23:02.729Z,11.00
2023-03-13T09:24:02.936Z,11.00
2023-03-13T09:25:02.691Z,11.10
2023-03-13T09:26:02.875Z,11.10
2023-03-13T09:27:02.867Z,11.10
2023-03-13T09:28:02.842Z,11.10
2023-03-13T09:29:02.862Z,11.20
2023-03-13T09:30:02.959Z,11.20
2023-03-13T09:31:03.117Z,11.20
2023-03-13T09:32:03.016Z,11.30
2023-03-13T09:33:03.118Z,11.30
2023-03-13T09:34:03.095Z,11.40
2023-03-13T09:35:03.077Z,11.40
2023-03-13T09:36:03.109Z,11.40
2023-03-13T09:37:02.951Z,11.50
2023-03-13T09:38:02.988Z,11.50
2023-03-13T09:39:02.915Z,11.50
2023-03-13T09:40:02.983Z,11.50
2023-03-13T09:41:06.097Z,11.60
2023-03-13T09:42:03.024Z,11.60
2023-03-13T09:43:03.020Z,11.60
2023-03-13T09:44:02.955Z,11.60
2023-03-13T09:45:02.926Z,11.70
2023-03-13T09:46:03.102Z,11.70
2023-03-13T09:47:03.079Z,11.70
2023-03-13T09:48:03.142Z,11.70
2023-03-13T09:49:03.144Z,11.80
2023-03-13T09:50:03.172Z,11.80
2023-03-13T09:51:03.116Z,11.80
2023-03-13T09:52:03.107Z,11.80
2023-03-13T09:53:03.152Z,11.80
2023-03-13T09:54:03.119Z,11.80
2023-03-13T09:55:03.191Z,11.80
2023-03-13T09:56:02.633Z,11.80
2023-03-13T09:57:02.707Z,11.90
2023-03-13T09:58:02.711Z,11.90
2023-03-13T09:59:02.812Z,11.90
2023-03-13T10:00:02.968Z,11.90
2023-03-13T10:01:03.088Z,11.90
2023-03-13T10:02:03.197Z,11.90
2023-03-13T10:03:03.110Z,11.90
2023-03-13T10:04:03.112Z,11.90
2023-03-13T10:05:03.077Z,11.90
2023-03-13T10:06:03.047Z,11.90
2023-03-13T10:07:03.153Z,11.90
2023-03-13T10:08:03.261Z,11.90
2023-03-13T10:09:03.332Z,11.90
2023-03-13T10:10:03.237Z,12.00
2023-03-13T10:11:03.342Z,11.90
2023-03-13T10:12:03.328Z,12.00
2023-03-13T10:13:03.370Z,12.00
2023-03-13T10:14:03.331Z,12.00
2023-03-13T10:15:03.254Z,11.90
2023-03-13T10:16:03.454Z,12.00
2023-03-13T10:17:03.474Z,12.00
2023-03-13T10:18:03.491Z,12.00
2023-03-13T10:19:03.548Z,12.00
2023-03-13T10:20:03.519Z,11.90
2023-03-13T10:21:03.552Z,11.90
2023-03-13T10:22:03.548Z,11.90
2023-03-13T10:23:03.614Z,11.90
2023-03-13T10:24:03.538Z,11.90
2023-03-13T10:25:02.614Z,11.90
2023-03-13T10:26:02.822Z,11.90
2023-03-13T10:27:02.928Z,11.90
2023-03-13T10:28:02.882Z,11.90
2023-03-13T10:29:02.976Z,11.90
2023-03-13T10:30:02.940Z,11.90
2023-03-13T10:31:02.976Z,11.90
2023-03-13T10:32:03.056Z,11.90
2023-03-13T10:33:03.101Z,11.90
2023-03-13T10:34:03.243Z,11.80
2023-03-13T10:35:03.333Z,11.80
2023-03-13T10:36:03.442Z,11.80
2023-03-13T10:37:03.491Z,11.80
2023-03-13T10:38:03.699Z,11.80
2023-03-13T10:39:02.710Z,11.80
2023-03-13T10:40:02.687Z,11.80
2023-03-13T10:41:02.662Z,11.80
2023-03-13T10:42:02.680Z,11.80
2023-03-13T10:43:02.719Z,11.80
2023-03-13T10:44:02.666Z,11.80
2023-03-13T10:45:02.788Z,11.80
2023-03-13T10:46:02.756Z,11.80
2023-03-13T10:47:02.952Z,11.80
2023-03-13T10:48:02.997Z,11.80
2023-03-13T10:49:03.057Z,11.80
2023-03-13T10:50:03.120Z,11.80
2023-03-13T10:51:03.062Z,11.80
2023-03-13T10:52:03.073Z,11.80
2023-03-13T10:53:03.158Z,11.80
2023-03-13T10:54:03.484Z,11.80
2023-03-13T10:55:03.473Z,11.80
2023-03-13T10:56:03.465Z,11.80
2023-03-13T10:57:02.791Z,11.80
2023-03-13T10:58:02.853Z,11.80
2023-03-13T10:59:02.883Z,11.80
2023-03-13T11:00:04.217Z,11.80
2023-03-13T11:01:03.085Z,11.80
2023-03-13T11:02:03.161Z,11.80
2023-03-13T11:03:03.364Z,11.80
2023-03-13T11:04:03.318Z,11.90
2023-03-13T11:05:03.257Z,11.90
2023-03-13T11:06:03.235Z,11.90
2023-03-13T11:07:03.284Z,11.90
2023-03-13T11:08:03.432Z,12.00
2023-03-13T11:09:03.407Z,12.00
2023-03-13T11:10:03.398Z,12.10
2023-03-13T11:11:03.442Z,12.20
2023-03-13T11:12:03.573Z,12.20
2023-03-13T11:13:03.525Z,12.30
2023-03-13T11:14:02.698Z,12.30
2023-03-13T11:15:03.605Z,12.40
2023-03-13T11:16:03.703Z,12.50
2023-03-13T11:17:03.650Z,12.50
2023-03-13T11:18:03.595Z,12.60
2023-03-13T11:19:02.652Z,12.60
2023-03-13T11:20:02.758Z,12.70
2023-03-13T11:21:15.807Z,12.70
2023-03-13T11:22:02.989Z,12.80
2023-03-13T11:23:02.870Z,12.80
2023-03-13T11:24:02.874Z,12.90
2023-03-13T11:25:02.971Z,12.90
2023-03-13T11:26:02.887Z,13.00
2023-03-13T11:27:04.883Z,13.00
2023-03-13T11:28:02.845Z,13.00
2023-03-13T11:29:02.818Z,13.00
2023-03-13T11:30:02.978Z,13.10
2023-03-13T11:31:02.729Z,13.10
2023-03-13T11:32:02.828Z,13.10
2023-03-13T11:33:02.792Z,13.10
2023-03-13T11:34:02.853Z,13.10
2023-03-13T11:35:03.120Z,13.10
2023-03-13T11:36:03.256Z,13.10
2023-03-13T11:37:03.206Z,13.10
2023-03-13T11:38:03.375Z,13.10
2023-03-13T11:39:03.451Z,13.10
2023-03-13T11:40:03.510Z,13.10
2023-03-13T11:41:03.683Z,13.00
2023-03-13T11:42:02.633Z,13.00
2023-03-13T11:43:08.922Z,13.00
2023-03-13T11:44:03.122Z,13.00
2023-03-13T11:45:03.104Z,13.00
2023-03-13T11:46:03.336Z,13.00
2023-03-13T11:47:03.385Z,13.00
2023-03-13T11:48:03.152Z,13.00
2023-03-13T11:49:02.966Z,13.00
2023-03-13T11:50:03.068Z,12.90
2023-03-13T11:51:03.230Z,12.90
2023-03-13T11:52:03.165Z,12.90
2023-03-13T11:53:03.180Z,12.90
2023-03-13T11:54:05.126Z,12.90
2023-03-13T11:55:03.300Z,12.90
2023-03-13T11:56:03.390Z,12.90
2023-03-13T11:57:03.314Z,12.90
2023-03-13T11:58:03.472Z,12.90
2023-03-13T11:59:03.403Z,12.90
2023-03-13T12:00:03.491Z,12.90
2023-03-13T12:01:03.516Z,12.90
2023-03-13T12:02:03.522Z,12.90
2023-03-13T12:03:03.589Z,12.90
2023-03-13T12:04:02.703Z,12.90
2023-03-13T12:05:03.228Z,12.90
2023-03-13T12:06:03.299Z,12.80
2023-03-13T12:07:04.777Z,12.90
2023-03-13T12:08:03.325Z,12.80
2023-03-13T12:09:03.345Z,12.80
2023-03-13T12:10:03.297Z,12.80
2023-03-13T12:11:03.364Z,12.80
2023-03-13T12:12:03.471Z,12.80
2023-03-13T12:13:03.474Z,12.80
2023-03-13T12:14:03.482Z,12.80
2023-03-13T12:15:03.496Z,12.80
2023-03-13T12:16:03.466Z,12.80
2023-03-13T12:17:03.616Z,12.90
2023-03-13T12:18:02.717Z,12.90
2023-03-13T12:19:02.861Z,12.90
2023-03-13T12:20:03.213Z,13.00
2023-03-13T12:21:03.304Z,13.00
2023-03-13T12:22:03.364Z,13.10
2023-03-13T12:23:03.489Z,13.10
2023-03-13T12:24:03.694Z,13.20
2023-03-13T12:25:06.235Z,13.30
2023-03-13T12:26:02.672Z,13.30
2023-03-13T12:27:02.881Z,13.40
2023-03-13T12:28:02.887Z,13.40
2023-03-13T12:29:02.869Z,13.50
2023-03-13T12:30:03.298Z,13.50
2023-03-13T12:31:03.390Z,13.50
2023-03-13T12:32:03.341Z,13.50
2023-03-13T12:33:03.530Z,13.60
2023-03-13T12:34:03.494Z,13.60
2023-03-13T12:35:04.043Z,13.60
2023-03-13T12:36:03.502Z,13.60
2023-03-13T12:37:03.431Z,13.60
2023-03-13T12:38:03.673Z,13.60
2023-03-13T12:39:03.617Z,13.60
2023-03-13T12:40:02.656Z,13.60
2023-03-13T12:41:02.748Z,13.60
2023-03-13T12:42:02.788Z,13.50
2023-03-13T12:43:02.834Z,13.50
2023-03-13T12:44:08.968Z,13.50
2023-03-13T12:45:02.934Z,13.50
2023-03-13T12:46:03.124Z,13.50
2023-03-13T12:47:03.048Z,13.50
2023-03-13T12:48:03.204Z,13.50
2023-03-13T12:49:03.242Z,13.50
2023-03-13T12:50:03.288Z,13.50
2023-03-13T12:51:03.403Z,13.50
2023-03-13T12:52:03.361Z,13.50
2023-03-13T12:53:03.321Z,13.50
2023-03-13T12:54:03.480Z,13.50
2023-03-13T12:55:03.389Z,13.50
2023-03-13T12:56:03.527Z,13.50
2023-03-13T12:57:03.515Z,13.50
2023-03-13T12:58:03.551Z,13.50
2023-03-13T12:59:03.435Z,13.50
2023-03-13T13:00:02.621Z,13.50
2023-03-13T13:01:03.676Z,13.50
2023-03-13T13:02:03.601Z,13.50
2023-03-13T13:03:02.771Z,13.50
2023-03-13T13:04:02.753Z,13.50
2023-03-13T13:05:02.790Z,13.50
2023-03-13T13:06:02.724Z,13.50
2023-03-13T13:07:02.808Z,13.50
2023-03-13T13:08:02.809Z,13.50